sensor_id;sensor_type;location;lat;lon;timestamp;P1;durP1;ratioP1;P2;durP2;ratioP2
10134;SDS011;5107;48.850;8.924;2022-12-10T00:01:34;27.13;;;14.50;;
10134;SDS011;5107;48.850;8.924;2022-12-10T00:04:02;30.50;;;15.00;;
10134;SDS011;5107;48.850;8.924;2022-12-10T00:06:30;27.50;;;15.83;;
10134;SDS011;5107;48.850;8.924;2022-12-10T00:09:02;29.73;;;16.13;;
10134;SDS011;5107;48.850;8.924;2022-12-10T00:11:31;29.90;;;16.07;;
10134;SDS011;5107;48.850;8.924;2022-12-10T00:13:58;26.00;;;15.00;;
10134;SDS011;5107;48.850;8.924;2022-12-10T00:16:27;28.33;;;15.43;;
10134;SDS011;5107;48.850;8.924;2022-12-10T00:18:55;29.13;;;15.70;;
10134;SDS011;5107;48.850;8.924;2022-12-10T00:21:24;27.83;;;15.47;;
10134;SDS011;5107;48.850;8.924;2022-12-10T00:23:55;29.90;;;14.97;;
10134;SDS011;5107;48.850;8.924;2022-12-10T00:26:24;29.07;;;15.77;;
10134;SDS011;5107;48.850;8.924;2022-12-10T00:28:54;27.87;;;15.23;;
10134;SDS011;5107;48.850;8.924;2022-12-10T00:31:22;28.13;;;16.40;;
10134;SDS011;5107;48.850;8.924;2022-12-10T00:33:52;27.10;;;15.13;;
10134;SDS011;5107;48.850;8.924;2022-12-10T00:36:21;25.60;;;14.67;;
10134;SDS011;5107;48.850;8.924;2022-12-10T00:38:56;26.70;;;15.67;;
10134;SDS011;5107;48.850;8.924;2022-12-10T00:41:26;27.90;;;15.23;;
10134;SDS011;5107;48.850;8.924;2022-12-10T00:43:53;28.60;;;15.83;;
10134;SDS011;5107;48.850;8.924;2022-12-10T00:46:20;31.13;;;16.57;;
10134;SDS011;5107;48.850;8.924;2022-12-10T00:48:48;29.70;;;16.07;;
10134;SDS011;5107;48.850;8.924;2022-12-10T00:51:15;29.10;;;15.80;;
10134;SDS011;5107;48.850;8.924;2022-12-10T00:53:45;30.27;;;16.67;;
10134;SDS011;5107;48.850;8.924;2022-12-10T00:56:16;29.43;;;15.70;;
10134;SDS011;5107;48.850;8.924;2022-12-10T00:58:45;28.77;;;15.93;;
10134;SDS011;5107;48.850;8.924;2022-12-10T01:01:15;29.77;;;16.07;;
10134;SDS011;5107;48.850;8.924;2022-12-10T01:03:46;29.03;;;16.97;;
10134;SDS011;5107;48.850;8.924;2022-12-10T01:06:16;27.70;;;15.70;;
10134;SDS011;5107;48.850;8.924;2022-12-10T01:08:46;31.43;;;16.33;;
10134;SDS011;5107;48.850;8.924;2022-12-10T01:11:18;33.23;;;16.13;;
10134;SDS011;5107;48.850;8.924;2022-12-10T01:13:47;27.40;;;16.27;;
10134;SDS011;5107;48.850;8.924;2022-12-10T01:16:17;29.27;;;16.73;;
10134;SDS011;5107;48.850;8.924;2022-12-10T01:18:45;29.37;;;16.67;;
10134;SDS011;5107;48.850;8.924;2022-12-10T01:21:15;29.73;;;16.53;;
10134;SDS011;5107;48.850;8.924;2022-12-10T01:23:44;29.40;;;16.27;;
10134;SDS011;5107;48.850;8.924;2022-12-10T01:26:14;30.33;;;16.03;;
10134;SDS011;5107;48.850;8.924;2022-12-10T01:28:45;30.10;;;16.60;;
10134;SDS011;5107;48.850;8.924;2022-12-10T01:31:14;28.63;;;15.93;;
10134;SDS011;5107;48.850;8.924;2022-12-10T01:33:43;29.40;;;16.47;;
10134;SDS011;5107;48.850;8.924;2022-12-10T01:36:12;29.07;;;15.60;;
10134;SDS011;5107;48.850;8.924;2022-12-10T01:38:42;29.03;;;16.13;;
10134;SDS011;5107;48.850;8.924;2022-12-10T01:41:12;32.03;;;16.50;;
10134;SDS011;5107;48.850;8.924;2022-12-10T01:43:51;27.63;;;15.83;;
10134;SDS011;5107;48.850;8.924;2022-12-10T01:46:24;27.57;;;15.63;;
10134;SDS011;5107;48.850;8.924;2022-12-10T01:48:55;31.57;;;15.70;;
10134;SDS011;5107;48.850;8.924;2022-12-10T01:51:23;32.07;;;17.17;;
10134;SDS011;5107;48.850;8.924;2022-12-10T01:53:53;28.30;;;15.67;;
10134;SDS011;5107;48.850;8.924;2022-12-10T01:56:21;29.33;;;16.50;;
10134;SDS011;5107;48.850;8.924;2022-12-10T01:58:51;29.03;;;15.90;;
10134;SDS011;5107;48.850;8.924;2022-12-10T02:01:25;28.60;;;15.37;;
10134;SDS011;5107;48.850;8.924;2022-12-10T02:04:04;30.93;;;15.83;;
10134;SDS011;5107;48.850;8.924;2022-12-10T02:06:44;25.67;;;14.53;;
10134;SDS011;5107;48.850;8.924;2022-12-10T02:09:21;29.27;;;15.73;;
10134;SDS011;5107;48.850;8.924;2022-12-10T02:11:59;27.63;;;15.70;;
10134;SDS011;5107;48.850;8.924;2022-12-10T02:14:51;28.70;;;15.60;;
10134;SDS011;5107;48.850;8.924;2022-12-10T02:17:26;30.50;;;16.27;;
10134;SDS011;5107;48.850;8.924;2022-12-10T02:20:02;29.70;;;15.50;;
10134;SDS011;5107;48.850;8.924;2022-12-10T02:22:35;28.47;;;15.30;;
10134;SDS011;5107;48.850;8.924;2022-12-10T02:25:07;31.47;;;15.60;;
10134;SDS011;5107;48.850;8.924;2022-12-10T02:27:40;27.30;;;15.17;;
10134;SDS011;5107;48.850;8.924;2022-12-10T02:30:15;31.80;;;16.47;;
10134;SDS011;5107;48.850;8.924;2022-12-10T02:32:43;29.10;;;15.00;;
10134;SDS011;5107;48.850;8.924;2022-12-10T02:35:15;28.83;;;15.83;;
10134;SDS011;5107;48.850;8.924;2022-12-10T02:37:47;28.47;;;16.10;;
10134;SDS011;5107;48.850;8.924;2022-12-10T02:40:19;27.73;;;15.37;;
10134;SDS011;5107;48.850;8.924;2022-12-10T02:42:53;31.17;;;16.07;;
10134;SDS011;5107;48.850;8.924;2022-12-10T02:45:23;26.57;;;15.50;;
10134;SDS011;5107;48.850;8.924;2022-12-10T02:47:53;27.37;;;15.60;;
10134;SDS011;5107;48.850;8.924;2022-12-10T02:50:25;30.63;;;14.73;;
10134;SDS011;5107;48.850;8.924;2022-12-10T02:52:53;31.10;;;15.80;;
10134;SDS011;5107;48.850;8.924;2022-12-10T02:55:20;29.90;;;15.97;;
10134;SDS011;5107;48.850;8.924;2022-12-10T02:58:03;29.07;;;15.60;;
10134;SDS011;5107;48.850;8.924;2022-12-10T03:00:41;28.47;;;16.07;;
10134;SDS011;5107;48.850;8.924;2022-12-10T03:03:20;29.87;;;16.53;;
10134;SDS011;5107;48.850;8.924;2022-12-10T03:06:02;30.40;;;16.80;;
10134;SDS011;5107;48.850;8.924;2022-12-10T03:08:38;23.97;;;14.50;;
10134;SDS011;5107;48.850;8.924;2022-12-10T03:11:12;30.13;;;15.17;;
10134;SDS011;5107;48.850;8.924;2022-12-10T03:13:43;27.17;;;14.63;;
10134;SDS011;5107;48.850;8.924;2022-12-10T03:16:19;29.20;;;15.13;;
10134;SDS011;5107;48.850;8.924;2022-12-10T03:18:49;25.27;;;13.83;;
10134;SDS011;5107;48.850;8.924;2022-12-10T03:21:21;26.47;;;15.07;;
10134;SDS011;5107;48.850;8.924;2022-12-10T03:23:50;27.37;;;14.70;;
10134;SDS011;5107;48.850;8.924;2022-12-10T03:26:18;27.03;;;15.03;;
10134;SDS011;5107;48.850;8.924;2022-12-10T03:28:50;29.70;;;15.97;;
10134;SDS011;5107;48.850;8.924;2022-12-10T03:31:21;27.97;;;15.77;;
10134;SDS011;5107;48.850;8.924;2022-12-10T03:33:49;28.17;;;15.47;;
10134;SDS011;5107;48.850;8.924;2022-12-10T03:36:19;30.60;;;16.40;;
10134;SDS011;5107;48.850;8.924;2022-12-10T03:38:47;30.70;;;15.90;;
10134;SDS011;5107;48.850;8.924;2022-12-10T03:41:15;27.97;;;15.80;;
10134;SDS011;5107;48.850;8.924;2022-12-10T03:43:49;29.30;;;15.93;;
10134;SDS011;5107;48.850;8.924;2022-12-10T03:46:18;35.23;;;17.73;;
10134;SDS011;5107;48.850;8.924;2022-12-10T03:48:47;29.00;;;16.93;;
10134;SDS011;5107;48.850;8.924;2022-12-10T03:51:15;30.10;;;15.77;;
10134;SDS011;5107;48.850;8.924;2022-12-10T03:53:42;27.10;;;15.43;;
10134;SDS011;5107;48.850;8.924;2022-12-10T03:56:09;28.77;;;16.50;;
10134;SDS011;5107;48.850;8.924;2022-12-10T03:58:36;34.83;;;17.00;;
10134;SDS011;5107;48.850;8.924;2022-12-10T04:01:03;31.53;;;16.27;;
10134;SDS011;5107;48.850;8.924;2022-12-10T04:03:33;25.57;;;15.03;;
10134;SDS011;5107;48.850;8.924;2022-12-10T04:06:03;28.47;;;15.10;;
10134;SDS011;5107;48.850;8.924;2022-12-10T04:08:31;30.00;;;16.30;;
10134;SDS011;5107;48.850;8.924;2022-12-10T04:11:01;30.67;;;16.47;;
10134;SDS011;5107;48.850;8.924;2022-12-10T04:13:31;30.80;;;16.40;;
10134;SDS011;5107;48.850;8.924;2022-12-10T04:16:17;29.90;;;16.43;;
10134;SDS011;5107;48.850;8.924;2022-12-10T04:19:01;32.30;;;16.67;;
10134;SDS011;5107;48.850;8.924;2022-12-10T04:21:33;30.67;;;16.83;;
10134;SDS011;5107;48.850;8.924;2022-12-10T04:24:21;28.13;;;16.57;;
10134;SDS011;5107;48.850;8.924;2022-12-10T04:27:08;27.80;;;15.03;;
10134;SDS011;5107;48.850;8.924;2022-12-10T04:29:37;31.50;;;16.23;;
10134;SDS011;5107;48.850;8.924;2022-12-10T04:32:05;29.27;;;16.53;;
10134;SDS011;5107;48.850;8.924;2022-12-10T04:34:32;28.37;;;16.00;;
10134;SDS011;5107;48.850;8.924;2022-12-10T04:37:01;29.70;;;16.73;;
10134;SDS011;5107;48.850;8.924;2022-12-10T04:39:29;29.47;;;16.33;;
10134;SDS011;5107;48.850;8.924;2022-12-10T04:41:56;28.60;;;16.67;;
10134;SDS011;5107;48.850;8.924;2022-12-10T04:44:25;31.33;;;17.27;;
10134;SDS011;5107;48.850;8.924;2022-12-10T04:46:52;32.47;;;16.70;;
10134;SDS011;5107;48.850;8.924;2022-12-10T04:49:20;32.03;;;16.33;;
10134;SDS011;5107;48.850;8.924;2022-12-10T04:51:47;31.30;;;16.03;;
10134;SDS011;5107;48.850;8.924;2022-12-10T04:54:16;27.63;;;16.03;;
10134;SDS011;5107;48.850;8.924;2022-12-10T04:56:43;30.33;;;16.87;;
10134;SDS011;5107;48.850;8.924;2022-12-10T04:59:10;34.63;;;17.63;;
10134;SDS011;5107;48.850;8.924;2022-12-10T05:01:38;28.87;;;16.47;;
10134;SDS011;5107;48.850;8.924;2022-12-10T05:04:06;30.33;;;16.23;;
10134;SDS011;5107;48.850;8.924;2022-12-10T05:06:37;33.00;;;16.43;;
10134;SDS011;5107;48.850;8.924;2022-12-10T05:09:05;28.63;;;16.63;;
10134;SDS011;5107;48.850;8.924;2022-12-10T05:11:34;30.57;;;16.13;;
10134;SDS011;5107;48.850;8.924;2022-12-10T05:14:02;31.93;;;16.50;;
10134;SDS011;5107;48.850;8.924;2022-12-10T05:16:30;31.77;;;16.60;;
10134;SDS011;5107;48.850;8.924;2022-12-10T05:18:59;29.60;;;15.77;;
10134;SDS011;5107;48.850;8.924;2022-12-10T05:21:28;26.43;;;15.70;;
10134;SDS011;5107;48.850;8.924;2022-12-10T05:24:11;32.67;;;15.83;;
10134;SDS011;5107;48.850;8.924;2022-12-10T05:26:40;30.60;;;17.03;;
10134;SDS011;5107;48.850;8.924;2022-12-10T05:29:08;29.97;;;16.43;;
10134;SDS011;5107;48.850;8.924;2022-12-10T05:31:35;28.73;;;15.33;;
10134;SDS011;5107;48.850;8.924;2022-12-10T05:34:02;27.30;;;15.13;;
10134;SDS011;5107;48.850;8.924;2022-12-10T05:36:30;30.97;;;16.00;;
10134;SDS011;5107;48.850;8.924;2022-12-10T05:38:58;28.93;;;15.27;;
10134;SDS011;5107;48.850;8.924;2022-12-10T05:41:26;30.23;;;15.33;;
10134;SDS011;5107;48.850;8.924;2022-12-10T05:43:57;33.70;;;16.80;;
10134;SDS011;5107;48.850;8.924;2022-12-10T05:46:26;29.83;;;15.97;;
10134;SDS011;5107;48.850;8.924;2022-12-10T05:48:56;33.53;;;17.13;;
10134;SDS011;5107;48.850;8.924;2022-12-10T05:51:25;30.80;;;16.60;;
10134;SDS011;5107;48.850;8.924;2022-12-10T05:53:54;32.93;;;16.47;;
10134;SDS011;5107;48.850;8.924;2022-12-10T05:56:23;35.73;;;18.57;;
10134;SDS011;5107;48.850;8.924;2022-12-10T05:58:52;30.90;;;17.07;;
10134;SDS011;5107;48.850;8.924;2022-12-10T06:01:25;34.40;;;17.87;;
10134;SDS011;5107;48.850;8.924;2022-12-10T06:03:56;35.67;;;17.53;;
10134;SDS011;5107;48.850;8.924;2022-12-10T06:06:24;35.27;;;17.87;;
10134;SDS011;5107;48.850;8.924;2022-12-10T06:08:54;34.67;;;17.87;;
10134;SDS011;5107;48.850;8.924;2022-12-10T06:11:22;36.17;;;18.03;;
10134;SDS011;5107;48.850;8.924;2022-12-10T06:13:51;33.27;;;18.33;;
10134;SDS011;5107;48.850;8.924;2022-12-10T06:16:20;34.43;;;17.60;;
10134;SDS011;5107;48.850;8.924;2022-12-10T06:18:48;31.73;;;17.07;;
10134;SDS011;5107;48.850;8.924;2022-12-10T06:21:16;32.40;;;16.80;;
10134;SDS011;5107;48.850;8.924;2022-12-10T06:23:44;30.30;;;16.10;;
10134;SDS011;5107;48.850;8.924;2022-12-10T06:26:13;33.20;;;17.10;;
10134;SDS011;5107;48.850;8.924;2022-12-10T06:28:43;33.00;;;16.40;;
10134;SDS011;5107;48.850;8.924;2022-12-10T06:31:11;34.43;;;17.03;;
10134;SDS011;5107;48.850;8.924;2022-12-10T06:33:39;28.17;;;15.93;;
10134;SDS011;5107;48.850;8.924;2022-12-10T06:36:09;29.97;;;16.57;;
10134;SDS011;5107;48.850;8.924;2022-12-10T06:38:38;31.87;;;16.60;;
10134;SDS011;5107;48.850;8.924;2022-12-10T06:41:05;32.70;;;17.67;;
10134;SDS011;5107;48.850;8.924;2022-12-10T06:43:35;30.07;;;16.37;;
10134;SDS011;5107;48.850;8.924;2022-12-10T06:46:03;32.33;;;17.47;;
10134;SDS011;5107;48.850;8.924;2022-12-10T06:48:32;32.30;;;17.57;;
10134;SDS011;5107;48.850;8.924;2022-12-10T06:50:59;28.97;;;15.70;;
10134;SDS011;5107;48.850;8.924;2022-12-10T06:53:28;31.53;;;16.33;;
10134;SDS011;5107;48.850;8.924;2022-12-10T06:55:57;29.90;;;16.27;;
10134;SDS011;5107;48.850;8.924;2022-12-10T06:58:26;30.47;;;15.70;;
10134;SDS011;5107;48.850;8.924;2022-12-10T07:00:54;34.73;;;17.63;;
10134;SDS011;5107;48.850;8.924;2022-12-10T07:03:28;30.87;;;15.87;;
10134;SDS011;5107;48.850;8.924;2022-12-10T07:05:56;29.03;;;15.53;;
10134;SDS011;5107;48.850;8.924;2022-12-10T07:08:23;32.50;;;16.83;;
10134;SDS011;5107;48.850;8.924;2022-12-10T07:10:52;32.13;;;16.10;;
10134;SDS011;5107;48.850;8.924;2022-12-10T07:13:19;29.60;;;16.17;;
10134;SDS011;5107;48.850;8.924;2022-12-10T07:15:46;29.70;;;16.57;;
10134;SDS011;5107;48.850;8.924;2022-12-10T07:18:13;32.00;;;17.20;;
10134;SDS011;5107;48.850;8.924;2022-12-10T07:20:40;31.83;;;17.57;;
10134;SDS011;5107;48.850;8.924;2022-12-10T07:23:07;34.80;;;17.00;;
10134;SDS011;5107;48.850;8.924;2022-12-10T07:25:35;36.20;;;18.33;;
10134;SDS011;5107;48.850;8.924;2022-12-10T07:28:04;36.53;;;18.37;;
10134;SDS011;5107;48.850;8.924;2022-12-10T07:30:31;44.10;;;23.20;;
10134;SDS011;5107;48.850;8.924;2022-12-10T07:32:59;30.67;;;17.07;;
10134;SDS011;5107;48.850;8.924;2022-12-10T07:35:26;33.73;;;17.53;;
10134;SDS011;5107;48.850;8.924;2022-12-10T07:37:53;35.20;;;19.10;;
10134;SDS011;5107;48.850;8.924;2022-12-10T07:40:20;34.57;;;17.43;;
10134;SDS011;5107;48.850;8.924;2022-12-10T07:42:47;30.43;;;16.83;;
10134;SDS011;5107;48.850;8.924;2022-12-10T07:45:16;30.77;;;17.03;;
10134;SDS011;5107;48.850;8.924;2022-12-10T07:47:44;37.93;;;18.57;;
10134;SDS011;5107;48.850;8.924;2022-12-10T07:50:13;35.43;;;17.90;;
10134;SDS011;5107;48.850;8.924;2022-12-10T07:52:40;29.50;;;16.43;;
10134;SDS011;5107;48.850;8.924;2022-12-10T07:55:07;30.97;;;18.00;;
10134;SDS011;5107;48.850;8.924;2022-12-10T07:57:34;35.73;;;19.10;;
10134;SDS011;5107;48.850;8.924;2022-12-10T08:00:02;35.97;;;18.87;;
10134;SDS011;5107;48.850;8.924;2022-12-10T08:02:38;34.30;;;17.53;;
10134;SDS011;5107;48.850;8.924;2022-12-10T08:05:05;31.93;;;17.27;;
10134;SDS011;5107;48.850;8.924;2022-12-10T08:07:33;31.43;;;16.80;;
10134;SDS011;5107;48.850;8.924;2022-12-10T08:10:00;31.83;;;16.30;;
10134;SDS011;5107;48.850;8.924;2022-12-10T08:12:28;28.13;;;15.73;;
10134;SDS011;5107;48.850;8.924;2022-12-10T08:14:55;28.13;;;16.50;;
10134;SDS011;5107;48.850;8.924;2022-12-10T08:17:22;31.57;;;17.17;;
10134;SDS011;5107;48.850;8.924;2022-12-10T08:19:50;30.87;;;17.13;;
10134;SDS011;5107;48.850;8.924;2022-12-10T08:22:19;35.20;;;17.30;;
10134;SDS011;5107;48.850;8.924;2022-12-10T08:24:46;31.70;;;16.60;;
10134;SDS011;5107;48.850;8.924;2022-12-10T08:27:13;31.67;;;17.33;;
10134;SDS011;5107;48.850;8.924;2022-12-10T08:29:40;37.97;;;18.20;;
10134;SDS011;5107;48.850;8.924;2022-12-10T08:32:07;32.90;;;18.40;;
10134;SDS011;5107;48.850;8.924;2022-12-10T08:34:34;32.13;;;17.90;;
10134;SDS011;5107;48.850;8.924;2022-12-10T08:37:03;30.50;;;17.47;;
10134;SDS011;5107;48.850;8.924;2022-12-10T08:39:30;28.40;;;16.27;;
10134;SDS011;5107;48.850;8.924;2022-12-10T08:41:58;31.50;;;16.30;;
10134;SDS011;5107;48.850;8.924;2022-12-10T08:44:25;35.27;;;17.87;;
10134;SDS011;5107;48.850;8.924;2022-12-10T08:46:52;29.50;;;17.33;;
10134;SDS011;5107;48.850;8.924;2022-12-10T08:49:20;32.50;;;17.30;;
10134;SDS011;5107;48.850;8.924;2022-12-10T08:51:47;30.43;;;17.87;;
10134;SDS011;5107;48.850;8.924;2022-12-10T08:54:15;31.17;;;16.00;;
10134;SDS011;5107;48.850;8.924;2022-12-10T08:56:42;31.27;;;17.33;;
10134;SDS011;5107;48.850;8.924;2022-12-10T08:59:09;30.73;;;17.37;;
10134;SDS011;5107;48.850;8.924;2022-12-10T09:01:36;31.03;;;15.67;;
10134;SDS011;5107;48.850;8.924;2022-12-10T09:04:03;29.47;;;16.60;;
10134;SDS011;5107;48.850;8.924;2022-12-10T09:06:30;33.00;;;17.90;;
10134;SDS011;5107;48.850;8.924;2022-12-10T09:08:58;27.73;;;16.03;;
10134;SDS011;5107;48.850;8.924;2022-12-10T09:11:26;31.43;;;16.63;;
10134;SDS011;5107;48.850;8.924;2022-12-10T09:13:58;30.67;;;17.53;;
10134;SDS011;5107;48.850;8.924;2022-12-10T09:16:27;36.47;;;17.40;;
10134;SDS011;5107;48.850;8.924;2022-12-10T09:18:56;28.37;;;16.07;;
10134;SDS011;5107;48.850;8.924;2022-12-10T09:21:23;32.33;;;17.60;;
10134;SDS011;5107;48.850;8.924;2022-12-10T09:23:51;35.10;;;17.63;;
10134;SDS011;5107;48.850;8.924;2022-12-10T09:26:18;32.40;;;17.43;;
10134;SDS011;5107;48.850;8.924;2022-12-10T09:28:48;31.50;;;17.17;;
10134;SDS011;5107;48.850;8.924;2022-12-10T09:31:16;27.50;;;15.83;;
10134;SDS011;5107;48.850;8.924;2022-12-10T09:33:46;33.77;;;18.10;;
10134;SDS011;5107;48.850;8.924;2022-12-10T09:36:15;33.33;;;17.73;;
10134;SDS011;5107;48.850;8.924;2022-12-10T09:38:43;32.80;;;16.47;;
10134;SDS011;5107;48.850;8.924;2022-12-10T09:41:16;28.80;;;16.63;;
10134;SDS011;5107;48.850;8.924;2022-12-10T09:44:23;29.07;;;16.10;;
10134;SDS011;5107;48.850;8.924;2022-12-10T09:47:04;28.83;;;15.97;;
10134;SDS011;5107;48.850;8.924;2022-12-10T09:49:37;33.27;;;16.57;;
10134;SDS011;5107;48.850;8.924;2022-12-10T09:52:20;29.83;;;16.47;;
10134;SDS011;5107;48.850;8.924;2022-12-10T09:54:50;29.57;;;16.03;;
10134;SDS011;5107;48.850;8.924;2022-12-10T09:57:22;29.30;;;15.60;;
10134;SDS011;5107;48.850;8.924;2022-12-10T09:59:56;28.27;;;15.73;;
10134;SDS011;5107;48.850;8.924;2022-12-10T10:02:36;29.50;;;14.90;;
10134;SDS011;5107;48.850;8.924;2022-12-10T10:05:09;27.47;;;15.37;;
10134;SDS011;5107;48.850;8.924;2022-12-10T10:07:48;28.40;;;15.40;;
10134;SDS011;5107;48.850;8.924;2022-12-10T10:10:25;30.40;;;16.20;;
10134;SDS011;5107;48.850;8.924;2022-12-10T10:12:57;28.27;;;16.00;;
10134;SDS011;5107;48.850;8.924;2022-12-10T10:15:39;29.80;;;15.73;;
10134;SDS011;5107;48.850;8.924;2022-12-10T10:18:11;27.93;;;15.77;;
10134;SDS011;5107;48.850;8.924;2022-12-10T10:20:46;27.77;;;14.77;;
10134;SDS011;5107;48.850;8.924;2022-12-10T10:23:15;26.63;;;14.60;;
10134;SDS011;5107;48.850;8.924;2022-12-10T10:25:42;28.23;;;16.03;;
10134;SDS011;5107;48.850;8.924;2022-12-10T10:28:11;31.03;;;16.87;;
10134;SDS011;5107;48.850;8.924;2022-12-10T10:30:50;27.17;;;15.73;;
10134;SDS011;5107;48.850;8.924;2022-12-10T10:33:19;25.57;;;14.47;;
10134;SDS011;5107;48.850;8.924;2022-12-10T10:35:46;29.77;;;16.27;;
10134;SDS011;5107;48.850;8.924;2022-12-10T10:38:19;27.60;;;15.60;;
10134;SDS011;5107;48.850;8.924;2022-12-10T10:40:50;26.53;;;15.70;;
10134;SDS011;5107;48.850;8.924;2022-12-10T10:43:20;27.43;;;15.57;;
10134;SDS011;5107;48.850;8.924;2022-12-10T10:45:53;27.10;;;13.57;;
10134;SDS011;5107;48.850;8.924;2022-12-10T10:48:24;29.20;;;16.00;;
10134;SDS011;5107;48.850;8.924;2022-12-10T10:50:54;26.33;;;15.23;;
10134;SDS011;5107;48.850;8.924;2022-12-10T10:53:35;23.47;;;14.20;;
10134;SDS011;5107;48.850;8.924;2022-12-10T10:56:09;26.03;;;14.63;;
10134;SDS011;5107;48.850;8.924;2022-12-10T10:58:46;25.37;;;14.40;;
10134;SDS011;5107;48.850;8.924;2022-12-10T11:01:20;25.70;;;15.00;;
10134;SDS011;5107;48.850;8.924;2022-12-10T11:03:52;24.13;;;14.20;;
10134;SDS011;5107;48.850;8.924;2022-12-10T11:06:23;25.10;;;14.47;;
10134;SDS011;5107;48.850;8.924;2022-12-10T11:08:50;24.00;;;13.17;;
10134;SDS011;5107;48.850;8.924;2022-12-10T11:11:25;22.90;;;13.00;;
10134;SDS011;5107;48.850;8.924;2022-12-10T11:14:12;22.43;;;13.23;;
10134;SDS011;5107;48.850;8.924;2022-12-10T11:16:49;24.40;;;14.83;;
10134;SDS011;5107;48.850;8.924;2022-12-10T11:19:25;25.13;;;14.57;;
10134;SDS011;5107;48.850;8.924;2022-12-10T11:21:52;23.50;;;13.70;;
10134;SDS011;5107;48.850;8.924;2022-12-10T11:24:20;26.17;;;14.13;;
10134;SDS011;5107;48.850;8.924;2022-12-10T11:26:52;26.63;;;14.63;;
10134;SDS011;5107;48.850;8.924;2022-12-10T11:29:36;25.70;;;14.53;;
10134;SDS011;5107;48.850;8.924;2022-12-10T11:32:19;28.03;;;15.40;;
10134;SDS011;5107;48.850;8.924;2022-12-10T11:35:01;26.03;;;14.67;;
10134;SDS011;5107;48.850;8.924;2022-12-10T11:37:38;28.87;;;14.23;;
10134;SDS011;5107;48.850;8.924;2022-12-10T11:43:30;26.87;;;14.17;;
10134;SDS011;5107;48.850;8.924;2022-12-10T11:46:35;28.50;;;14.33;;
10134;SDS011;5107;48.850;8.924;2022-12-10T11:49:24;26.47;;;13.97;;
10134;SDS011;5107;48.850;8.924;2022-12-10T11:52:01;28.30;;;14.30;;
10134;SDS011;5107;48.850;8.924;2022-12-10T11:54:42;25.63;;;13.33;;
10134;SDS011;5107;48.850;8.924;2022-12-10T11:57:28;23.77;;;13.23;;
10134;SDS011;5107;48.850;8.924;2022-12-10T12:00:13;26.10;;;15.03;;
10134;SDS011;5107;48.850;8.924;2022-12-10T12:03:00;26.70;;;14.83;;
10134;SDS011;5107;48.850;8.924;2022-12-10T12:05:55;25.70;;;13.97;;
10134;SDS011;5107;48.850;8.924;2022-12-10T12:08:43;25.67;;;13.33;;
10134;SDS011;5107;48.850;8.924;2022-12-10T12:11:23;26.60;;;14.67;;
10134;SDS011;5107;48.850;8.924;2022-12-10T12:14:06;26.67;;;14.03;;
10134;SDS011;5107;48.850;8.924;2022-12-10T12:16:43;24.90;;;14.27;;
10134;SDS011;5107;48.850;8.924;2022-12-10T12:19:19;30.13;;;14.70;;
10134;SDS011;5107;48.850;8.924;2022-12-10T12:21:52;27.73;;;14.97;;
10134;SDS011;5107;48.850;8.924;2022-12-10T12:24:22;24.03;;;14.00;;
10134;SDS011;5107;48.850;8.924;2022-12-10T12:27:00;26.40;;;14.77;;
10134;SDS011;5107;48.850;8.924;2022-12-10T12:29:36;25.57;;;13.47;;
10134;SDS011;5107;48.850;8.924;2022-12-10T12:32:13;28.33;;;13.30;;
10134;SDS011;5107;48.850;8.924;2022-12-10T12:34:49;24.40;;;13.37;;
10134;SDS011;5107;48.850;8.924;2022-12-10T12:37:26;26.80;;;13.63;;
10134;SDS011;5107;48.850;8.924;2022-12-10T12:40:03;24.47;;;13.93;;
10134;SDS011;5107;48.850;8.924;2022-12-10T12:42:41;25.43;;;14.13;;
10134;SDS011;5107;48.850;8.924;2022-12-10T12:45:16;24.77;;;13.90;;
10134;SDS011;5107;48.850;8.924;2022-12-10T12:47:50;27.87;;;14.30;;
10134;SDS011;5107;48.850;8.924;2022-12-10T12:50:25;22.57;;;13.00;;
10134;SDS011;5107;48.850;8.924;2022-12-10T12:53:02;23.77;;;13.00;;
10134;SDS011;5107;48.850;8.924;2022-12-10T12:55:37;25.70;;;13.37;;
10134;SDS011;5107;48.850;8.924;2022-12-10T12:58:17;24.33;;;12.87;;
10134;SDS011;5107;48.850;8.924;2022-12-10T13:00:54;23.33;;;13.17;;
10134;SDS011;5107;48.850;8.924;2022-12-10T13:03:32;24.23;;;13.73;;
10134;SDS011;5107;48.850;8.924;2022-12-10T13:06:11;25.77;;;13.87;;
10134;SDS011;5107;48.850;8.924;2022-12-10T13:08:53;22.23;;;12.80;;
10134;SDS011;5107;48.850;8.924;2022-12-10T13:11:43;20.43;;;12.23;;
10134;SDS011;5107;48.850;8.924;2022-12-10T13:14:17;24.87;;;12.73;;
10134;SDS011;5107;48.850;8.924;2022-12-10T13:17:02;21.53;;;12.53;;
10134;SDS011;5107;48.850;8.924;2022-12-10T13:19:50;22.33;;;12.73;;
10134;SDS011;5107;48.850;8.924;2022-12-10T13:25:22;22.63;;;12.13;;
10134;SDS011;5107;48.850;8.924;2022-12-10T13:28:22;18.80;;;11.40;;
10134;SDS011;5107;48.850;8.924;2022-12-10T13:31:20;20.80;;;12.13;;
10134;SDS011;5107;48.850;8.924;2022-12-10T13:37:14;18.87;;;11.13;;
10134;SDS011;5107;48.850;8.924;2022-12-10T13:39:54;23.47;;;13.57;;
10134;SDS011;5107;48.850;8.924;2022-12-10T13:42:39;21.27;;;12.67;;
10134;SDS011;5107;48.850;8.924;2022-12-10T13:45:30;23.30;;;12.67;;
10134;SDS011;5107;48.850;8.924;2022-12-10T13:51:18;25.50;;;13.50;;
10134;SDS011;5107;48.850;8.924;2022-12-10T13:54:12;21.87;;;11.67;;
10134;SDS011;5107;48.850;8.924;2022-12-10T13:57:14;24.10;;;12.83;;
10134;SDS011;5107;48.850;8.924;2022-12-10T14:00:00;21.10;;;12.03;;
10134;SDS011;5107;48.850;8.924;2022-12-10T14:02:55;25.93;;;14.47;;
10134;SDS011;5107;48.850;8.924;2022-12-10T14:06:12;26.23;;;13.03;;
10134;SDS011;5107;48.850;8.924;2022-12-10T14:08:46;22.70;;;12.20;;
10134;SDS011;5107;48.850;8.924;2022-12-10T14:11:27;24.03;;;13.07;;
10134;SDS011;5107;48.850;8.924;2022-12-10T14:13:58;23.73;;;13.03;;
10134;SDS011;5107;48.850;8.924;2022-12-10T14:16:29;21.53;;;12.77;;
10134;SDS011;5107;48.850;8.924;2022-12-10T14:19:01;21.60;;;12.43;;
10134;SDS011;5107;48.850;8.924;2022-12-10T14:21:31;21.23;;;11.57;;
10134;SDS011;5107;48.850;8.924;2022-12-10T14:24:01;22.50;;;12.47;;
10134;SDS011;5107;48.850;8.924;2022-12-10T14:26:30;17.93;;;11.13;;
10134;SDS011;5107;48.850;8.924;2022-12-10T14:28:59;23.43;;;13.43;;
10134;SDS011;5107;48.850;8.924;2022-12-10T14:31:30;24.67;;;14.17;;
10134;SDS011;5107;48.850;8.924;2022-12-10T14:34:00;25.60;;;13.93;;
10134;SDS011;5107;48.850;8.924;2022-12-10T14:36:32;23.17;;;12.87;;
10134;SDS011;5107;48.850;8.924;2022-12-10T14:39:04;26.77;;;13.23;;
10134;SDS011;5107;48.850;8.924;2022-12-10T14:41:37;24.10;;;13.07;;
10134;SDS011;5107;48.850;8.924;2022-12-10T14:44:05;22.77;;;12.83;;
10134;SDS011;5107;48.850;8.924;2022-12-10T14:46:34;29.00;;;13.83;;
10134;SDS011;5107;48.850;8.924;2022-12-10T14:49:01;24.43;;;14.17;;
10134;SDS011;5107;48.850;8.924;2022-12-10T14:51:32;27.10;;;14.80;;
10134;SDS011;5107;48.850;8.924;2022-12-10T14:54:02;19.90;;;12.07;;
10134;SDS011;5107;48.850;8.924;2022-12-10T14:56:30;24.53;;;13.77;;
10134;SDS011;5107;48.850;8.924;2022-12-10T14:59:04;21.00;;;11.70;;
10134;SDS011;5107;48.850;8.924;2022-12-10T15:01:39;28.23;;;14.20;;
10134;SDS011;5107;48.850;8.924;2022-12-10T15:04:12;21.30;;;12.40;;
10134;SDS011;5107;48.850;8.924;2022-12-10T15:06:42;24.80;;;12.70;;
10134;SDS011;5107;48.850;8.924;2022-12-10T15:09:12;21.43;;;11.83;;
10134;SDS011;5107;48.850;8.924;2022-12-10T15:11:45;21.00;;;11.67;;
10134;SDS011;5107;48.850;8.924;2022-12-10T15:14:18;22.30;;;12.03;;
10134;SDS011;5107;48.850;8.924;2022-12-10T15:16:48;23.87;;;12.87;;